sensor_id;sensor_type;location;lat;lon;timestamp;P1;durP1;ratioP1;P2;durP2;ratioP2
46090;SDS011;31826;53.572;10.170;2023-11-21T00:01:54;13.23;;;5.60;;
46090;SDS011;31826;53.572;10.170;2023-11-21T00:04:20;12.30;;;5.25;;
46090;SDS011;31826;53.572;10.170;2023-11-21T00:06:46;14.10;;;5.68;;
46090;SDS011;31826;53.572;10.170;2023-11-21T00:09:12;11.90;;;5.13;;
46090;SDS011;31826;53.572;10.170;2023-11-21T00:11:40;15.55;;;6.43;;
46090;SDS011;31826;53.572;10.170;2023-11-21T00:14:07;13.48;;;6.07;;
46090;SDS011;31826;53.572;10.170;2023-11-21T00:16:33;14.52;;;6.25;;
46090;SDS011;31826;53.572;10.170;2023-11-21T00:18:59;12.98;;;6.20;;
46090;SDS011;31826;53.572;10.170;2023-11-21T00:21:25;14.48;;;6.57;;
46090;SDS011;31826;53.572;10.170;2023-11-21T00:23:51;13.82;;;6.00;;
46090;SDS011;31826;53.572;10.170;2023-11-21T00:26:16;16.17;;;6.25;;
46090;SDS011;31826;53.572;10.170;2023-11-21T00:28:42;13.65;;;5.93;;
46090;SDS011;31826;53.572;10.170;2023-11-21T00:31:08;13.63;;;5.75;;
46090;SDS011;31826;53.572;10.170;2023-11-21T00:33:33;12.75;;;5.30;;
46090;SDS011;31826;53.572;10.170;2023-11-21T00:35:59;13.93;;;5.50;;
46090;SDS011;31826;53.572;10.170;2023-11-21T00:38:25;15.70;;;6.03;;
46090;SDS011;31826;53.572;10.170;2023-11-21T00:40:52;13.30;;;6.07;;
46090;SDS011;31826;53.572;10.170;2023-11-21T00:43:22;14.55;;;5.82;;
46090;SDS011;31826;53.572;10.170;2023-11-21T00:45:48;15.45;;;6.68;;
46090;SDS011;31826;53.572;10.170;2023-11-21T00:48:14;13.50;;;5.82;;
46090;SDS011;31826;53.572;10.170;2023-11-21T00:50:40;15.15;;;6.20;;
46090;SDS011;31826;53.572;10.170;2023-11-21T00:53:06;16.60;;;7.13;;
46090;SDS011;31826;53.572;10.170;2023-11-21T00:55:32;17.63;;;7.00;;
46090;SDS011;31826;53.572;10.170;2023-11-21T00:57:58;18.02;;;7.63;;
46090;SDS011;31826;53.572;10.170;2023-11-21T01:00:24;19.63;;;8.20;;
46090;SDS011;31826;53.572;10.170;2023-11-21T01:02:51;15.95;;;7.47;;
46090;SDS011;31826;53.572;10.170;2023-11-21T01:05:17;16.25;;;6.80;;
46090;SDS011;31826;53.572;10.170;2023-11-21T01:07:42;18.23;;;7.65;;
46090;SDS011;31826;53.572;10.170;2023-11-21T01:10:08;16.42;;;6.85;;
46090;SDS011;31826;53.572;10.170;2023-11-21T01:12:35;15.83;;;6.77;;
46090;SDS011;31826;53.572;10.170;2023-11-21T01:15:02;15.07;;;6.88;;
46090;SDS011;31826;53.572;10.170;2023-11-21T01:17:29;15.82;;;7.03;;
46090;SDS011;31826;53.572;10.170;2023-11-21T01:19:54;17.47;;;7.33;;
46090;SDS011;31826;53.572;10.170;2023-11-21T01:22:21;14.35;;;6.72;;
46090;SDS011;31826;53.572;10.170;2023-11-21T01:24:51;16.95;;;7.55;;
46090;SDS011;31826;53.572;10.170;2023-11-21T01:27:19;18.27;;;7.95;;
46090;SDS011;31826;53.572;10.170;2023-11-21T01:29:45;14.77;;;7.23;;
46090;SDS011;31826;53.572;10.170;2023-11-21T01:32:11;17.23;;;7.07;;
46090;SDS011;31826;53.572;10.170;2023-11-21T01:34:36;16.65;;;6.72;;
46090;SDS011;31826;53.572;10.170;2023-11-21T01:37:02;14.15;;;6.65;;
46090;SDS011;31826;53.572;10.170;2023-11-21T01:39:30;13.55;;;6.38;;
46090;SDS011;31826;53.572;10.170;2023-11-21T01:41:56;14.77;;;6.00;;
46090;SDS011;31826;53.572;10.170;2023-11-21T01:44:25;12.27;;;5.53;;
46090;SDS011;31826;53.572;10.170;2023-11-21T01:46:51;12.18;;;5.10;;
46090;SDS011;31826;53.572;10.170;2023-11-21T01:49:17;11.88;;;5.22;;
46090;SDS011;31826;53.572;10.170;2023-11-21T01:51:47;12.27;;;5.53;;
46090;SDS011;31826;53.572;10.170;2023-11-21T01:54:14;12.50;;;5.95;;
46090;SDS011;31826;53.572;10.170;2023-11-21T01:56:42;12.25;;;5.40;;
46090;SDS011;31826;53.572;10.170;2023-11-21T01:59:11;12.13;;;5.63;;
46090;SDS011;31826;53.572;10.170;2023-11-21T02:01:39;12.73;;;5.30;;
46090;SDS011;31826;53.572;10.170;2023-11-21T02:04:05;10.88;;;4.88;;
46090;SDS011;31826;53.572;10.170;2023-11-21T02:06:33;12.38;;;5.38;;
46090;SDS011;31826;53.572;10.170;2023-11-21T02:08:59;10.52;;;5.35;;
46090;SDS011;31826;53.572;10.170;2023-11-21T02:11:25;11.95;;;5.22;;
46090;SDS011;31826;53.572;10.170;2023-11-21T02:13:52;11.38;;;5.20;;
46090;SDS011;31826;53.572;10.170;2023-11-21T02:16:19;10.00;;;4.90;;
46090;SDS011;31826;53.572;10.170;2023-11-21T02:18:46;11.65;;;5.38;;
46090;SDS011;31826;53.572;10.170;2023-11-21T02:21:14;12.80;;;5.60;;
46090;SDS011;31826;53.572;10.170;2023-11-21T02:23:39;11.10;;;4.95;;
46090;SDS011;31826;53.572;10.170;2023-11-21T02:26:09;12.05;;;4.93;;
46090;SDS011;31826;53.572;10.170;2023-11-21T02:28:36;11.43;;;4.97;;
46090;SDS011;31826;53.572;10.170;2023-11-21T02:31:03;11.53;;;5.07;;
46090;SDS011;31826;53.572;10.170;2023-11-21T02:33:30;12.50;;;4.68;;
46090;SDS011;31826;53.572;10.170;2023-11-21T02:35:59;12.52;;;4.82;;
46090;SDS011;31826;53.572;10.170;2023-11-21T02:38:28;11.20;;;5.15;;
46090;SDS011;31826;53.572;10.170;2023-11-21T02:40:53;12.67;;;5.77;;
46090;SDS011;31826;53.572;10.170;2023-11-21T02:43:19;13.97;;;5.53;;
46090;SDS011;31826;53.572;10.170;2023-11-21T02:45:45;12.17;;;5.03;;
46090;SDS011;31826;53.572;10.170;2023-11-21T02:48:10;12.27;;;5.15;;
46090;SDS011;31826;53.572;10.170;2023-11-21T02:50:36;12.30;;;5.40;;
46090;SDS011;31826;53.572;10.170;2023-11-21T02:53:02;13.32;;;5.20;;
46090;SDS011;31826;53.572;10.170;2023-11-21T02:55:30;12.13;;;4.87;;
46090;SDS011;31826;53.572;10.170;2023-11-21T02:57:59;14.32;;;5.85;;
46090;SDS011;31826;53.572;10.170;2023-11-21T03:00:26;12.38;;;5.20;;
46090;SDS011;31826;53.572;10.170;2023-11-21T03:02:51;13.70;;;5.25;;
46090;SDS011;31826;53.572;10.170;2023-11-21T03:05:18;11.88;;;5.35;;
46090;SDS011;31826;53.572;10.170;2023-11-21T03:07:44;10.35;;;4.78;;
46090;SDS011;31826;53.572;10.170;2023-11-21T03:10:10;11.55;;;5.53;;
46090;SDS011;31826;53.572;10.170;2023-11-21T03:12:36;11.48;;;5.00;;
46090;SDS011;31826;53.572;10.170;2023-11-21T03:15:03;12.88;;;5.25;;
46090;SDS011;31826;53.572;10.170;2023-11-21T03:17:33;13.60;;;5.45;;
46090;SDS011;31826;53.572;10.170;2023-11-21T03:19:59;13.05;;;5.38;;
46090;SDS011;31826;53.572;10.170;2023-11-21T03:22:25;11.97;;;5.53;;
46090;SDS011;31826;53.572;10.170;2023-11-21T03:24:51;11.07;;;5.10;;
46090;SDS011;31826;53.572;10.170;2023-11-21T03:27:20;11.93;;;5.40;;
46090;SDS011;31826;53.572;10.170;2023-11-21T03:29:46;10.30;;;4.72;;
46090;SDS011;31826;53.572;10.170;2023-11-21T03:32:13;11.18;;;4.82;;
46090;SDS011;31826;53.572;10.170;2023-11-21T03:34:57;11.35;;;5.30;;
46090;SDS011;31826;53.572;10.170;2023-11-21T03:37:23;11.80;;;5.17;;
46090;SDS011;31826;53.572;10.170;2023-11-21T03:39:50;11.77;;;5.38;;
46090;SDS011;31826;53.572;10.170;2023-11-21T03:42:16;10.82;;;4.78;;
46090;SDS011;31826;53.572;10.170;2023-11-21T03:44:42;12.07;;;5.00;;
46090;SDS011;31826;53.572;10.170;2023-11-21T03:47:07;10.93;;;4.57;;
46090;SDS011;31826;53.572;10.170;2023-11-21T03:49:33;10.67;;;5.40;;
46090;SDS011;31826;53.572;10.170;2023-11-21T03:51:59;10.30;;;4.60;;
46090;SDS011;31826;53.572;10.170;2023-11-21T03:54:24;13.52;;;5.20;;
46090;SDS011;31826;53.572;10.170;2023-11-21T03:56:50;10.00;;;4.95;;
46090;SDS011;31826;53.572;10.170;2023-11-21T03:59:17;11.40;;;5.03;;
46090;SDS011;31826;53.572;10.170;2023-11-21T04:01:42;11.00;;;4.83;;
46090;SDS011;31826;53.572;10.170;2023-11-21T04:04:08;10.50;;;5.10;;
46090;SDS011;31826;53.572;10.170;2023-11-21T04:06:34;11.77;;;5.37;;
46090;SDS011;31826;53.572;10.170;2023-11-21T04:09:01;12.48;;;4.95;;
46090;SDS011;31826;53.572;10.170;2023-11-21T04:11:26;13.27;;;5.32;;
46090;SDS011;31826;53.572;10.170;2023-11-21T04:13:54;9.80;;;4.50;;
46090;SDS011;31826;53.572;10.170;2023-11-21T04:16:20;11.07;;;4.67;;
46090;SDS011;31826;53.572;10.170;2023-11-21T04:18:46;9.73;;;4.63;;
46090;SDS011;31826;53.572;10.170;2023-11-21T04:21:12;12.57;;;4.93;;
46090;SDS011;31826;53.572;10.170;2023-11-21T04:23:37;10.25;;;4.93;;
46090;SDS011;31826;53.572;10.170;2023-11-21T04:26:05;11.55;;;5.13;;
46090;SDS011;31826;53.572;10.170;2023-11-21T04:28:30;12.63;;;5.30;;
46090;SDS011;31826;53.572;10.170;2023-11-21T04:30:56;11.70;;;4.87;;
46090;SDS011;31826;53.572;10.170;2023-11-21T04:33:22;12.82;;;5.00;;
46090;SDS011;31826;53.572;10.170;2023-11-21T04:35:47;11.90;;;5.15;;
46090;SDS011;31826;53.572;10.170;2023-11-21T04:38:13;13.18;;;5.65;;
46090;SDS011;31826;53.572;10.170;2023-11-21T04:40:39;13.77;;;5.57;;
46090;SDS011;31826;53.572;10.170;2023-11-21T04:43:05;12.45;;;5.85;;
46090;SDS011;31826;53.572;10.170;2023-11-21T04:45:31;15.30;;;6.45;;
46090;SDS011;31826;53.572;10.170;2023-11-21T04:47:56;12.90;;;5.85;;
46090;SDS011;31826;53.572;10.170;2023-11-21T04:50:22;11.52;;;5.53;;
46090;SDS011;31826;53.572;10.170;2023-11-21T04:52:48;12.68;;;5.97;;
46090;SDS011;31826;53.572;10.170;2023-11-21T04:55:14;12.02;;;5.90;;
46090;SDS011;31826;53.572;10.170;2023-11-21T04:57:40;12.70;;;5.78;;
46090;SDS011;31826;53.572;10.170;2023-11-21T05:00:07;13.90;;;6.40;;
46090;SDS011;31826;53.572;10.170;2023-11-21T05:02:34;13.05;;;6.15;;
46090;SDS011;31826;53.572;10.170;2023-11-21T05:05:00;14.57;;;7.38;;
46090;SDS011;31826;53.572;10.170;2023-11-21T05:07:26;12.18;;;5.65;;
46090;SDS011;31826;53.572;10.170;2023-11-21T05:09:54;11.77;;;5.53;;
46090;SDS011;31826;53.572;10.170;2023-11-21T05:12:21;12.15;;;5.68;;
46090;SDS011;31826;53.572;10.170;2023-11-21T05:14:48;12.52;;;5.60;;
46090;SDS011;31826;53.572;10.170;2023-11-21T05:17:14;12.48;;;5.88;;
46090;SDS011;31826;53.572;10.170;2023-11-21T05:19:40;14.63;;;5.97;;
46090;SDS011;31826;53.572;10.170;2023-11-21T05:22:06;11.60;;;5.15;;
46090;SDS011;31826;53.572;10.170;2023-11-21T05:24:33;12.70;;;5.43;;
46090;SDS011;31826;53.572;10.170;2023-11-21T05:27:00;10.85;;;4.93;;
46090;SDS011;31826;53.572;10.170;2023-11-21T05:29:25;14.07;;;5.57;;
46090;SDS011;31826;53.572;10.170;2023-11-21T05:31:52;11.48;;;5.55;;
46090;SDS011;31826;53.572;10.170;2023-11-21T05:34:18;10.63;;;4.72;;
46090;SDS011;31826;53.572;10.170;2023-11-21T05:36:45;11.43;;;5.20;;
46090;SDS011;31826;53.572;10.170;2023-11-21T05:39:11;12.70;;;5.43;;
46090;SDS011;31826;53.572;10.170;2023-11-21T05:41:37;13.07;;;5.38;;
46090;SDS011;31826;53.572;10.170;2023-11-21T05:44:03;12.43;;;5.95;;
46090;SDS011;31826;53.572;10.170;2023-11-21T05:46:28;13.32;;;5.82;;
46090;SDS011;31826;53.572;10.170;2023-11-21T05:48:54;14.33;;;7.13;;
46090;SDS011;31826;53.572;10.170;2023-11-21T05:51:20;12.73;;;5.30;;
46090;SDS011;31826;53.572;10.170;2023-11-21T05:53:46;12.80;;;5.77;;
46090;SDS011;31826;53.572;10.170;2023-11-21T05:56:11;12.00;;;5.67;;
46090;SDS011;31826;53.572;10.170;2023-11-21T05:58:38;12.27;;;5.63;;
46090;SDS011;31826;53.572;10.170;2023-11-21T06:01:05;13.40;;;5.60;;
46090;SDS011;31826;53.572;10.170;2023-11-21T06:03:34;11.90;;;6.43;;
46090;SDS011;31826;53.572;10.170;2023-11-21T06:06:00;10.95;;;5.70;;
46090;SDS011;31826;53.572;10.170;2023-11-21T06:08:26;14.43;;;6.50;;
46090;SDS011;31826;53.572;10.170;2023-11-21T06:10:52;12.35;;;5.63;;
46090;SDS011;31826;53.572;10.170;2023-11-21T06:13:17;12.70;;;6.53;;
46090;SDS011;31826;53.572;10.170;2023-11-21T06:15:49;11.70;;;5.82;;
46090;SDS011;31826;53.572;10.170;2023-11-21T06:18:15;11.35;;;5.40;;
46090;SDS011;31826;53.572;10.170;2023-11-21T06:20:44;11.73;;;5.65;;
46090;SDS011;31826;53.572;10.170;2023-11-21T06:23:10;17.05;;;6.78;;
46090;SDS011;31826;53.572;10.170;2023-11-21T06:25:36;13.07;;;6.07;;
46090;SDS011;31826;53.572;10.170;2023-11-21T06:28:02;14.50;;;7.13;;
46090;SDS011;31826;53.572;10.170;2023-11-21T06:30:28;11.85;;;5.25;;
46090;SDS011;31826;53.572;10.170;2023-11-21T06:32:54;12.97;;;5.83;;
46090;SDS011;31826;53.572;10.170;2023-11-21T06:35:21;13.80;;;6.65;;
46090;SDS011;31826;53.572;10.170;2023-11-21T06:37:46;14.20;;;6.75;;
46090;SDS011;31826;53.572;10.170;2023-11-21T06:40:13;12.57;;;6.55;;
46090;SDS011;31826;53.572;10.170;2023-11-21T06:42:43;14.05;;;6.13;;
46090;SDS011;31826;53.572;10.170;2023-11-21T06:45:09;12.20;;;5.63;;
46090;SDS011;31826;53.572;10.170;2023-11-21T06:47:36;12.53;;;6.10;;
46090;SDS011;31826;53.572;10.170;2023-11-21T06:50:03;13.00;;;6.05;;
46090;SDS011;31826;53.572;10.170;2023-11-21T06:52:29;11.70;;;6.25;;
46090;SDS011;31826;53.572;10.170;2023-11-21T06:54:55;13.68;;;6.18;;
46090;SDS011;31826;53.572;10.170;2023-11-21T06:57:22;18.25;;;6.32;;
46090;SDS011;31826;53.572;10.170;2023-11-21T06:59:48;13.90;;;6.47;;
46090;SDS011;31826;53.572;10.170;2023-11-21T07:02:15;17.67;;;5.95;;
46090;SDS011;31826;53.572;10.170;2023-11-21T07:04:43;15.02;;;6.28;;
46090;SDS011;31826;53.572;10.170;2023-11-21T07:07:10;12.77;;;6.15;;
46090;SDS011;31826;53.572;10.170;2023-11-21T07:09:36;13.80;;;5.95;;
46090;SDS011;31826;53.572;10.170;2023-11-21T07:12:01;15.05;;;6.38;;
46090;SDS011;31826;53.572;10.170;2023-11-21T07:14:29;11.90;;;5.90;;
46090;SDS011;31826;53.572;10.170;2023-11-21T07:16:54;12.50;;;5.50;;
46090;SDS011;31826;53.572;10.170;2023-11-21T07:19:20;14.48;;;5.95;;
46090;SDS011;31826;53.572;10.170;2023-11-21T07:21:46;12.23;;;5.85;;
46090;SDS011;31826;53.572;10.170;2023-11-21T07:24:15;11.98;;;5.65;;
46090;SDS011;31826;53.572;10.170;2023-11-21T07:26:41;13.27;;;5.90;;
46090;SDS011;31826;53.572;10.170;2023-11-21T07:29:07;12.47;;;6.30;;
46090;SDS011;31826;53.572;10.170;2023-11-21T07:31:33;13.52;;;6.15;;
46090;SDS011;31826;53.572;10.170;2023-11-21T07:34:02;12.30;;;5.68;;
46090;SDS011;31826;53.572;10.170;2023-11-21T07:36:27;12.73;;;5.28;;
46090;SDS011;31826;53.572;10.170;2023-11-21T07:38:53;12.38;;;5.50;;
46090;SDS011;31826;53.572;10.170;2023-11-21T07:41:19;14.38;;;6.05;;
46090;SDS011;31826;53.572;10.170;2023-11-21T07:43:45;12.23;;;5.55;;
46090;SDS011;31826;53.572;10.170;2023-11-21T07:46:11;10.73;;;5.23;;
46090;SDS011;31826;53.572;10.170;2023-11-21T07:48:38;11.20;;;5.10;;
46090;SDS011;31826;53.572;10.170;2023-11-21T07:51:04;13.00;;;4.95;;
46090;SDS011;31826;53.572;10.170;2023-11-21T07:53:31;11.48;;;5.45;;
46090;SDS011;31826;53.572;10.170;2023-11-21T07:55:58;13.90;;;4.95;;
46090;SDS011;31826;53.572;10.170;2023-11-21T07:58:27;10.73;;;4.73;;
46090;SDS011;31826;53.572;10.170;2023-11-21T08:00:53;14.70;;;5.20;;
46090;SDS011;31826;53.572;10.170;2023-11-21T08:03:19;10.67;;;4.83;;
46090;SDS011;31826;53.572;10.170;2023-11-21T08:05:46;13.65;;;5.80;;
46090;SDS011;31826;53.572;10.170;2023-11-21T08:08:11;11.75;;;5.32;;
46090;SDS011;31826;53.572;10.170;2023-11-21T08:10:37;10.82;;;5.03;;
46090;SDS011;31826;53.572;10.170;2023-11-21T08:13:04;11.10;;;4.78;;
46090;SDS011;31826;53.572;10.170;2023-11-21T08:15:30;9.77;;;4.53;;
46090;SDS011;31826;53.572;10.170;2023-11-21T08:17:58;12.18;;;5.40;;
46090;SDS011;31826;53.572;10.170;2023-11-21T08:20:24;9.60;;;4.55;;
46090;SDS011;31826;53.572;10.170;2023-11-21T08:22:50;10.35;;;4.40;;
46090;SDS011;31826;53.572;10.170;2023-11-21T08:25:17;10.13;;;4.40;;
46090;SDS011;31826;53.572;10.170;2023-11-21T08:27:45;9.23;;;4.32;;
46090;SDS011;31826;53.572;10.170;2023-11-21T08:30:11;9.27;;;4.30;;
46090;SDS011;31826;53.572;10.170;2023-11-21T08:32:39;8.80;;;4.40;;
46090;SDS011;31826;53.572;10.170;2023-11-21T08:35:07;9.70;;;4.13;;
46090;SDS011;31826;53.572;10.170;2023-11-21T08:37:33;10.03;;;4.00;;
46090;SDS011;31826;53.572;10.170;2023-11-21T08:40:02;9.27;;;4.10;;
46090;SDS011;31826;53.572;10.170;2023-11-21T08:42:29;9.45;;;4.00;;
46090;SDS011;31826;53.572;10.170;2023-11-21T08:44:55;7.20;;;4.00;;
46090;SDS011;31826;53.572;10.170;2023-11-21T08:47:23;10.05;;;4.45;;
46090;SDS011;31826;53.572;10.170;2023-11-21T08:49:49;10.00;;;4.40;;
46090;SDS011;31826;53.572;10.170;2023-11-21T08:52:18;9.88;;;4.18;;
46090;SDS011;31826;53.572;10.170;2023-11-21T08:54:48;9.65;;;4.60;;
46090;SDS011;31826;53.572;10.170;2023-11-21T08:57:20;8.53;;;3.53;;
46090;SDS011;31826;53.572;10.170;2023-11-21T08:59:49;8.47;;;3.43;;
46090;SDS011;31826;53.572;10.170;2023-11-21T09:02:23;6.53;;;3.30;;
46090;SDS011;31826;53.572;10.170;2023-11-21T09:04:51;8.07;;;3.55;;
46090;SDS011;31826;53.572;10.170;2023-11-21T09:07:18;7.68;;;3.33;;
46090;SDS011;31826;53.572;10.170;2023-11-21T09:09:45;7.45;;;3.80;;
46090;SDS011;31826;53.572;10.170;2023-11-21T09:12:15;7.17;;;3.30;;
46090;SDS011;31826;53.572;10.170;2023-11-21T09:14:42;8.50;;;3.85;;
46090;SDS011;31826;53.572;10.170;2023-11-21T09:17:09;8.50;;;3.42;;
46090;SDS011;31826;53.572;10.170;2023-11-21T09:19:39;9.70;;;3.70;;
46090;SDS011;31826;53.572;10.170;2023-11-21T09:22:05;8.80;;;3.72;;
46090;SDS011;31826;53.572;10.170;2023-11-21T09:24:32;7.38;;;3.42;;
46090;SDS011;31826;53.572;10.170;2023-11-21T09:26:58;7.22;;;3.13;;
46090;SDS011;31826;53.572;10.170;2023-11-21T09:29:25;7.50;;;3.53;;
46090;SDS011;31826;53.572;10.170;2023-11-21T09:31:51;8.13;;;3.25;;
46090;SDS011;31826;53.572;10.170;2023-11-21T09:34:17;6.63;;;3.10;;
46090;SDS011;31826;53.572;10.170;2023-11-21T09:36:46;7.35;;;3.13;;
46090;SDS011;31826;53.572;10.170;2023-11-21T09:39:13;6.13;;;2.80;;
46090;SDS011;31826;53.572;10.170;2023-11-21T09:41:43;7.13;;;3.03;;
46090;SDS011;31826;53.572;10.170;2023-11-21T09:44:22;7.65;;;3.05;;
46090;SDS011;31826;53.572;10.170;2023-11-21T09:46:59;4.93;;;2.60;;
46090;SDS011;31826;53.572;10.170;2023-11-21T09:49:25;7.00;;;3.00;;
46090;SDS011;31826;53.572;10.170;2023-11-21T09:51:53;5.45;;;2.85;;
46090;SDS011;31826;53.572;10.170;2023-11-21T09:54:23;6.35;;;3.00;;
46090;SDS011;31826;53.572;10.170;2023-11-21T09:56:50;7.65;;;3.28;;
46090;SDS011;31826;53.572;10.170;2023-11-21T09:59:15;6.18;;;3.10;;
46090;SDS011;31826;53.572;10.170;2023-11-21T10:01:42;6.18;;;2.92;;
46090;SDS011;31826;53.572;10.170;2023-11-21T10:04:10;7.70;;;3.10;;
46090;SDS011;31826;53.572;10.170;2023-11-21T10:06:40;6.85;;;2.97;;
46090;SDS011;31826;53.572;10.170;2023-11-21T10:09:09;7.18;;;2.80;;
46090;SDS011;31826;53.572;10.170;2023-11-21T10:11:40;6.78;;;3.10;;
46090;SDS011;31826;53.572;10.170;2023-11-21T10:14:08;6.70;;;3.03;;
46090;SDS011;31826;53.572;10.170;2023-11-21T10:16:36;8.88;;;3.30;;
46090;SDS011;31826;53.572;10.170;2023-11-21T10:19:04;7.00;;;2.90;;
46090;SDS011;31826;53.572;10.170;2023-11-21T10:21:34;7.40;;;2.88;;
46090;SDS011;31826;53.572;10.170;2023-11-21T10:24:00;6.78;;;3.00;;
46090;SDS011;31826;53.572;10.170;2023-11-21T10:26:29;7.93;;;2.80;;
46090;SDS011;31826;53.572;10.170;2023-11-21T10:29:00;8.40;;;3.85;;
46090;SDS011;31826;53.572;10.170;2023-11-21T10:31:30;5.53;;;3.00;;
46090;SDS011;31826;53.572;10.170;2023-11-21T10:34:17;6.72;;;3.05;;
46090;SDS011;31826;53.572;10.170;2023-11-21T10:36:44;5.65;;;2.63;;
46090;SDS011;31826;53.572;10.170;2023-11-21T10:39:14;7.82;;;3.20;;
46090;SDS011;31826;53.572;10.170;2023-11-21T10:41:44;5.85;;;2.50;;
46090;SDS011;31826;53.572;10.170;2023-11-21T10:44:14;6.45;;;2.97;;
46090;SDS011;31826;53.572;10.170;2023-11-21T10:46:45;7.57;;;2.70;;
46090;SDS011;31826;53.572;10.170;2023-11-21T10:49:15;6.78;;;2.80;;
46090;SDS011;31826;53.572;10.170;2023-11-21T10:51:45;6.38;;;2.50;;
46090;SDS011;31826;53.572;10.170;2023-11-21T10:54:11;7.00;;;2.72;;
46090;SDS011;31826;53.572;10.170;2023-11-21T10:56:37;5.57;;;2.55;;
46090;SDS011;31826;53.572;10.170;2023-11-21T10:59:08;6.80;;;2.90;;
46090;SDS011;31826;53.572;10.170;2023-11-21T11:01:40;5.85;;;2.92;;
46090;SDS011;31826;53.572;10.170;2023-11-21T11:04:11;5.78;;;2.63;;
46090;SDS011;31826;53.572;10.170;2023-11-21T11:06:44;6.37;;;2.80;;
46090;SDS011;31826;53.572;10.170;2023-11-21T11:09:16;6.57;;;2.70;;
46090;SDS011;31826;53.572;10.170;2023-11-21T11:11:42;6.43;;;2.95;;
46090;SDS011;31826;53.572;10.170;2023-11-21T11:14:11;5.90;;;2.40;;
46090;SDS011;31826;53.572;10.170;2023-11-21T11:16:38;5.05;;;2.55;;
46090;SDS011;31826;53.572;10.170;2023-11-21T11:19:06;5.65;;;2.80;;
46090;SDS011;31826;53.572;10.170;2023-11-21T11:27:22;6.23;;;2.70;;
46090;SDS011;31826;53.572;10.170;2023-11-21T11:35:10;4.82;;;2.58;;
46090;SDS011;31826;53.572;10.170;2023-11-21T11:37:49;10.15;;;2.90;;
46090;SDS011;31826;53.572;10.170;2023-11-21T11:40:15;4.30;;;2.22;;
46090;SDS011;31826;53.572;10.170;2023-11-21T11:42:55;3.80;;;2.20;;
46090;SDS011;31826;53.572;10.170;2023-11-21T11:45:22;6.23;;;2.53;;
46090;SDS011;31826;53.572;10.170;2023-11-21T11:47:57;5.93;;;2.67;;
46090;SDS011;31826;53.572;10.170;2023-11-21T11:50:23;5.78;;;2.50;;
46090;SDS011;31826;53.572;10.170;2023-11-21T11:52:50;6.60;;;2.65;;
46090;SDS011;31826;53.572;10.170;2023-11-21T11:55:20;5.88;;;2.65;;
46090;SDS011;31826;53.572;10.170;2023-11-21T11:57:47;6.78;;;2.60;;
46090;SDS011;31826;53.572;10.170;2023-11-21T12:02:53;5.88;;;2.75;;
46090;SDS011;31826;53.572;10.170;2023-11-21T12:05:19;5.45;;;2.67;;
46090;SDS011;31826;53.572;10.170;2023-11-21T12:07:50;8.90;;;2.88;;
46090;SDS011;31826;53.572;10.170;2023-11-21T12:10:24;7.13;;;2.75;;
46090;SDS011;31826;53.572;10.170;2023-11-21T12:12:57;5.43;;;2.57;;
46090;SDS011;31826;53.572;10.170;2023-11-21T12:15:27;5.07;;;2.50;;
46090;SDS011;31826;53.572;10.170;2023-11-21T12:17:55;8.13;;;2.80;;
46090;SDS011;31826;53.572;10.170;2023-11-21T12:20:21;6.10;;;2.50;;
46090;SDS011;31826;53.572;10.170;2023-11-21T12:22:51;5.32;;;2.60;;
46090;SDS011;31826;53.572;10.170;2023-11-21T12:25:21;4.82;;;2.35;;
46090;SDS011;31826;53.572;10.170;2023-11-21T12:27:50;4.68;;;2.30;;
46090;SDS011;31826;53.572;10.170;2023-11-21T12:30:18;6.47;;;2.58;;
46090;SDS011;31826;53.572;10.170;2023-11-21T12:32:53;5.68;;;2.50;;
46090;SDS011;31826;53.572;10.170;2023-11-21T12:35:21;6.15;;;2.72;;
46090;SDS011;31826;53.572;10.170;2023-11-21T12:37:49;5.88;;;2.47;;
46090;SDS011;31826;53.572;10.170;2023-11-21T12:40:17;4.95;;;2.40;;
46090;SDS011;31826;53.572;10.170;2023-11-21T12:42:44;6.40;;;2.90;;
46090;SDS011;31826;53.572;10.170;2023-11-21T12:47:52;4.65;;;2.30;;
46090;SDS011;31826;53.572;10.170;2023-11-21T12:50:22;5.90;;;2.40;;
46090;SDS011;31826;53.572;10.170;2023-11-21T12:52:51;5.40;;;2.47;;
46090;SDS011;31826;53.572;10.170;2023-11-21T12:55:21;5.95;;;2.58;;
46090;SDS011;31826;53.572;10.170;2023-11-21T12:57:48;4.87;;;2.20;;
46090;SDS011;31826;53.572;10.170;2023-11-21T13:00:20;6.93;;;2.40;;
46090;SDS011;31826;53.572;10.170;2023-11-21T13:02:55;5.65;;;2.33;;
46090;SDS011;31826;53.572;10.170;2023-11-21T13:05:27;4.90;;;2.40;;
46090;SDS011;31826;53.572;10.170;2023-11-21T13:07:55;4.93;;;2.20;;
46090;SDS011;31826;53.572;10.170;2023-11-21T13:10:26;4.78;;;2.25;;
46090;SDS011;31826;53.572;10.170;2023-11-21T13:12:56;4.90;;;2.60;;
46090;SDS011;31826;53.572;10.170;2023-11-21T13:15:26;5.83;;;2.60;;
46090;SDS011;31826;53.572;10.170;2023-11-21T13:17:52;7.13;;;2.70;;
46090;SDS011;31826;53.572;10.170;2023-11-21T13:20:19;6.70;;;2.85;;
46090;SDS011;31826;53.572;10.170;2023-11-21T13:22:49;5.88;;;2.50;;
46090;SDS011;31826;53.572;10.170;2023-11-21T13:25:20;6.53;;;2.40;;
46090;SDS011;31826;53.572;10.170;2023-11-21T13:27:46;7.93;;;2.57;;
46090;SDS011;31826;53.572;10.170;2023-11-21T13:30:13;6.00;;;2.83;;
46090;SDS011;31826;53.572;10.170;2023-11-21T13:32:41;5.05;;;2.40;;
46090;SDS011;31826;53.572;10.170;2023-11-21T13:35:11;4.57;;;2.30;;
46090;SDS011;31826;53.572;10.170;2023-11-21T13:37:46;5.57;;;2.80;;
46090;SDS011;31826;53.572;10.170;2023-11-21T13:40:15;6.10;;;2.60;;
46090;SDS011;31826;53.572;10.170;2023-11-21T13:42:45;5.68;;;2.40;;
46090;SDS011;31826;53.572;10.170;2023-11-21T13:45:11;6.75;;;2.80;;
46090;SDS011;31826;53.572;10.170;2023-11-21T13:47:37;7.32;;;2.90;;
46090;SDS011;31826;53.572;10.170;2023-11-21T13:50:05;3.78;;;2.22;;
46090;SDS011;31826;53.572;10.170;2023-11-21T13:52:42;5.82;;;2.47;;
46090;SDS011;31826;53.572;10.170;2023-11-21T13:55:10;4.05;;;2.13;;
46090;SDS011;31826;53.572;10.170;2023-11-21T13:57:40;5.47;;;2.53;;
46090;SDS011;31826;53.572;10.170;2023-11-21T14:00:12;5.18;;;2.38;;
46090;SDS011;31826;53.572;10.170;2023-11-21T14:03:04;5.97;;;2.50;;
46090;SDS011;31826;53.572;10.170;2023-11-21T14:05:36;4.85;;;2.30;;
46090;SDS011;31826;53.572;10.170;2023-11-21T14:08:01;6.30;;;2.42;;
46090;SDS011;31826;53.572;10.170;2023-11-21T14:10:31;5.32;;;2.22;;
46090;SDS011;31826;53.572;10.170;2023-11-21T14:13:08;5.18;;;2.47;;
46090;SDS011;31826;53.572;10.170;2023-11-21T14:15:38;6.00;;;2.53;;
46090;SDS011;31826;53.572;10.170;2023-11-21T14:18:10;4.88;;;2.40;;
46090;SDS011;31826;53.572;10.170;2023-11-21T14:20:37;4.57;;;2.25;;
46090;SDS011;31826;53.572;10.170;2023-11-21T14:23:04;5.80;;;2.47;;
46090;SDS011;31826;53.572;10.170;2023-11-21T14:25:34;5.60;;;2.33;;
46090;SDS011;31826;53.572;10.170;2023-11-21T14:28:04;6.10;;;2.58;;
46090;SDS011;31826;53.572;10.170;2023-11-21T14:30:31;4.82;;;2.28;;
46090;SDS011;31826;53.572;10.170;2023-11-21T14:33:00;7.90;;;2.50;;
46090;SDS011;31826;53.572;10.170;2023-11-21T14:35:26;4.68;;;2.67;;
46090;SDS011;31826;53.572;10.170;2023-11-21T14:37:53;4.93;;;2.25;;
46090;SDS011;31826;53.572;10.170;2023-11-21T14:40:19;6.88;;;2.42;;
46090;SDS011;31826;53.572;10.170;2023-11-21T14:42:49;5.18;;;2.03;;
46090;SDS011;31826;53.572;10.170;2023-11-21T14:45:18;5.82;;;2.22;;